Terminal Aerodrome Forecast
Issued by NWS

Home | Current Version | Previous Version | Graphics & Text | Print | Product List | Glossary Off
Versions: 1 2 3 4 5 6 7 8 9 10 11 12 13

000
FTUS43 KDDC 161100
TAFHYS
TAF
KHYS 161123Z 1612/1712 20012G20KT P6SM SKC
     FM161600 34014G24KT P6SM SKC
     FM170100 03012KT P6SM SKC=

USA.gov is the U.S. government's official web portal to all federal, state and local government web resources and services.